HOURLY OBS INDEX

024

Murray Valley

LOXTON RESEARCH CENTRE

Site: 024024
Alt: 30.1m
33km SSW of RENMARK


  Time     Wind        Temp  DP   Baro     Rain since   Rain past  Vis(m), Cloud(base in m), Weather
  local        km/h                         9am  last   hr   10m    
Tue 19:30    C  0/  0   7.6  4.4  1027.0    0.0   0.0   0.0   0.0   ----- 
Tue 20:00    C  0/  0   6.2  4.3  1026.7    0.0   0.0   0.0   0.0   ----- 
Tue 20:30    C  0/  0   6.2  4.8  1026.8    0.0   0.0   0.0   0.0   ----- 
Tue 21:00    C  0/  0   7.1  4.1  1026.2   ----  ----  ----   0.0   ----- 
Tue 21:30    C  0/  0   7.7  4.0  1026.3   ----  ----  ----   0.0   ----- 
Tue 22:00    C  0/  0   7.3  4.0  1026.3   ----  ----  ----   0.0   ----- 
Tue 22:30    C  0/  0   6.3  3.9  1026.0   ----  ----  ----   0.0   ----- 
Tue 23:00    C  0/  0   5.1  3.4  1025.6   ----  ----  ----   0.0   ----- 
Tue 23:30    C  0/  0   5.1  3.9  1025.6   ----  ----  ----   0.0   ----- 
Wed 00:00    C  0/  0   5.7  3.8  1025.5   ----  ----  ----   0.0   ----- 
Wed 00:30    C  0/  0   5.9  4.0  1025.6   ----  ----  ----   0.0   ----- 
Wed 00:30    C  0/  0   5.9  4.0  1025.6   ----  ----  ----   0.0   ----- 

MURRAY BRIDGE (PALLAMANA AERODROME)

Site: 024584
Alt: 45.0m
7km NW of MURRAY BRIDGE


  Time     Wind        Temp  DP   Baro     Rain since   Rain past  Vis(m), Cloud(base in m), Weather
  local        km/h                         9am  last   hr   10m    
Tue 19:30    N 11/ 13   6.3  3.7  1025.0    0.0   0.0   0.0   0.0   10000 
Tue 20:00  NNW 15/ 19   7.2  4.2  1025.4    0.0   0.0   0.0   0.0   10000 
Tue 20:30  NNW 13/ 17   6.8  4.5  1025.4    0.0   0.0   0.0   0.0   10000 
Tue 21:00    N 11/ 15   6.2  3.8  1025.4    0.0   0.0   0.0   0.0   10000 
Tue 21:30    N 13/ 15   6.0  3.6  1025.1    0.0   0.0   0.0   0.0   10000 
Tue 22:00    N 13/ 17   6.4  4.3  1024.9    0.0   0.0   0.0   0.0   10000 
Tue 22:30    N 11/ 15   6.3  3.9  1024.6    0.0   0.0   0.0   0.0   10000 
Tue 23:00  NNW  9/ 13   5.7  3.8  1024.9    0.0   0.0   0.0   0.0   10000 
Tue 23:30  NNW  6/  7   5.3  3.6  1025.1    0.0   0.0   0.0   0.0   10000 
Wed 00:00    N  6/  6   4.8  3.3  1025.2    0.0   0.0   0.0   0.0   10000 
Wed 00:30    C  0/  0   4.9  3.9  1025.0    0.0   0.0   0.0   0.0   10000 
Wed 00:30    C  0/  0   4.9  3.9  1025.0    0.0   0.0  ----   0.0   10000 

RENMARK AERO

Site: 024048
Alt: 31.5m
7km WSW of RENMARK


  Time     Wind        Temp  DP   Baro     Rain since   Rain past  Vis(m), Cloud(base in m), Weather
  local        km/h                         9am  last   hr   10m    
Tue 19:30    N  9/  9   6.2  3.7  1027.1    0.0   0.0   0.0   0.0   10000 
Tue 20:00    C  0/  0   5.5  3.5  1026.8    0.0   0.0   0.0   0.0   10000 
Tue 20:30  NNE  9/ 11   5.8  4.0  1026.7    0.0   0.0   0.0   0.0   10000 
Tue 21:00    N  9/ 13   5.9  4.4  1026.6    0.0   0.0   0.0   0.0   10000 
Tue 21:30    N 11/ 13   6.2  4.0  1026.2    0.0   0.0   0.0   0.0   10000 
Tue 22:00    N 11/ 13   6.1  3.9  1026.2    0.0   0.0   0.0   0.0   10000 
Tue 22:30    N  7/  9   5.8  3.8  1026.1    0.0   0.0   0.0   0.0   10000 
Tue 23:00  NNE  7/  9   4.8  3.0  1025.5    0.0   0.0   0.0   0.0   10000 
Tue 23:30    N  6/  9   4.0  2.5  1025.4    0.0   0.0   0.0   0.0   10000 
Wed 00:00    N  7/  9   3.5  2.0  1025.5    0.0   0.0   0.0   0.0   10000 
Wed 00:30    N  9/ 13   5.3  3.8  1025.5    0.0   0.0   0.0   0.0   10000 
Wed 00:30    N  9/ 13   5.3  3.8  1025.5    0.0   0.0  ----   0.0   10000 

STRATHALBYN RACECOURSE

Site: 024580
Alt: 58.0m
39km NE of VICTOR HARBOR


  Time     Wind        Temp  DP   Baro     Rain since   Rain past  Vis(m), Cloud(base in m), Weather
  local        km/h                         9am  last   hr   10m    
Tue 19:30    N 13/ 17   8.5  4.3  1024.3    0.0   0.0   0.0   0.0   ----- 
Tue 20:00  NNE 11/ 15   7.9  4.3  1024.4    0.0   0.0   0.0   0.0   ----- 
Tue 20:30  NNW  7/  9   7.3  4.3  1024.3    0.0   0.0   0.0   0.0   ----- 
Tue 21:00    C  0/  6   7.1  4.1  1024.3    0.0   0.0   0.0   0.0   ----- 
Tue 21:30    C  0/  0   6.6  3.9  1024.5    0.0   0.0   0.0   0.0   ----- 
Tue 22:00  SSW  4/  7   6.4  3.9  1024.3    0.0   0.0   0.0   0.0   ----- 
Tue 22:30    C  0/  0   6.2  4.0  1024.4    0.0   0.0   0.0   0.0   ----- 
Tue 23:00  NNW  7/ 11   6.2  3.9  1024.3    0.0   0.0   0.0   0.0   ----- 
Tue 23:30  NNW  9/ 13   6.4  3.7  1024.5    0.0   0.0   0.0   0.0   ----- 
Wed 00:00    N  7/ 11   5.9  3.2  1024.4    0.0   0.0   0.0   0.0   ----- 
Wed 00:30    C  0/  0   5.5  3.3  1024.3    0.0   0.0   0.0   0.0   ----- 
Wed 00:30    C  0/  0   5.5  3.3  1024.3    0.0   0.0  ----   0.0   -----